createdAt,value
2023-05-11T00:00:47.766Z,13.50
2023-05-11T00:03:52.086Z,13.50
2023-05-11T00:06:55.971Z,13.50
2023-05-11T00:09:58.506Z,13.50
2023-05-11T00:13:01.498Z,13.50
2023-05-11T00:16:04.935Z,13.50
2023-05-11T00:19:06.781Z,13.50
2023-05-11T00:22:08.662Z,13.50
2023-05-11T00:25:10.800Z,13.50
2023-05-11T00:28:13.057Z,13.50
2023-05-11T00:31:14.948Z,13.40
2023-05-11T00:34:18.544Z,13.40
2023-05-11T00:37:20.338Z,13.40
2023-05-11T00:40:26.738Z,13.40
2023-05-11T00:43:28.655Z,13.40
2023-05-11T00:46:31.269Z,13.40
2023-05-11T00:49:33.320Z,13.30
2023-05-11T00:52:36.113Z,13.40
2023-05-11T00:55:38.532Z,13.30
2023-05-11T00:58:43.713Z,13.30
2023-05-11T01:01:45.741Z,13.30
2023-05-11T01:04:47.882Z,13.30
2023-05-11T01:08:05.064Z,13.30
2023-05-11T01:11:17.456Z,13.30
2023-05-11T01:14:21.776Z,13.30
2023-05-11T01:17:36.083Z,13.30
2023-05-11T01:20:38.034Z,13.30
2023-05-11T01:23:49.148Z,13.30
2023-05-11T01:27:40.411Z,13.30
2023-05-11T01:30:57.053Z,13.30
2023-05-11T01:34:06.410Z,13.30
2023-05-11T01:37:23.158Z,13.30
2023-05-11T01:40:29.265Z,13.30
2023-05-11T01:43:36.302Z,13.30
2023-05-11T01:46:40.065Z,13.30
2023-05-11T01:49:44.560Z,13.20
2023-05-11T01:52:47.965Z,13.20
2023-05-11T01:55:51.310Z,13.10
2023-05-11T01:58:55.465Z,13.10
2023-05-11T02:01:59.505Z,13.10
2023-05-11T02:05:03.247Z,13.20
2023-05-11T02:08:06.897Z,13.20
2023-05-11T02:11:10.614Z,13.20
2023-05-11T02:14:17.945Z,13.20
2023-05-11T02:17:22.959Z,13.20
2023-05-11T02:20:26.698Z,13.20
2023-05-11T02:23:31.202Z,13.20
2023-05-11T02:26:34.123Z,13.20
2023-05-11T02:29:36.040Z,13.20
2023-05-11T02:32:43.221Z,13.10
2023-05-11T02:35:47.049Z,13.10
2023-05-11T02:38:54.970Z,13.10
2023-05-11T02:41:58.600Z,13.10
2023-05-11T02:45:09.734Z,13.20
2023-05-11T02:48:23.897Z,13.30
2023-05-11T02:51:31.971Z,13.30
2023-05-11T02:54:35.511Z,13.30
2023-05-11T02:57:39.866Z,13.20
2023-05-11T03:00:42.660Z,13.20
2023-05-11T03:03:44.821Z,13.20
2023-05-11T03:06:46.891Z,13.10
2023-05-11T03:09:49.358Z,13.10
2023-05-11T03:12:51.912Z,13.00
2023-05-11T03:15:57.937Z,13.00
2023-05-11T03:19:02.066Z,13.00
2023-05-11T03:22:05.870Z,12.90
2023-05-11T03:25:08.851Z,12.90
2023-05-11T03:28:13.465Z,12.80
2023-05-11T03:31:15.581Z,12.80
2023-05-11T03:34:18.342Z,12.90
2023-05-11T03:37:21.447Z,12.90
2023-05-11T03:40:25.318Z,12.90
2023-05-11T03:43:30.410Z,12.90
2023-05-11T03:46:50.509Z,12.80
2023-05-11T03:49:53.220Z,12.80
2023-05-11T03:52:56.403Z,12.80
2023-05-11T03:55:58.393Z,12.80
2023-05-11T03:59:00.349Z,12.70
2023-05-11T04:02:12.776Z,12.70
2023-05-11T04:05:15.609Z,12.60
2023-05-11T04:08:17.771Z,12.60
2023-05-11T04:11:19.620Z,12.60
2023-05-11T04:14:21.379Z,12.60
2023-05-11T04:17:25.677Z,12.50
2023-05-11T04:20:27.597Z,12.60
2023-05-11T04:23:30.205Z,12.50
2023-05-11T04:26:32.161Z,12.50
2023-05-11T04:29:36.260Z,12.50
2023-05-11T04:32:38.045Z,12.50
2023-05-11T04:35:40.167Z,12.60
2023-05-11T04:38:42.307Z,12.50
2023-05-11T04:41:44.691Z,12.50
2023-05-11T04:44:46.576Z,12.60
2023-05-11T04:47:49.289Z,12.50
2023-05-11T04:50:52.160Z,12.50
2023-05-11T04:53:54.789Z,12.50
2023-05-11T04:56:56.772Z,12.50
2023-05-11T04:59:58.810Z,12.50
2023-05-11T05:03:01.517Z,12.60
2023-05-11T05:06:03.950Z,12.60
2023-05-11T05:09:06.940Z,12.60
2023-05-11T05:12:11.532Z,12.60
2023-05-11T05:15:13.368Z,12.60
2023-05-11T05:18:16.726Z,12.50
2023-05-11T05:21:18.430Z,12.50
2023-05-11T05:24:21.019Z,12.60
2023-05-11T05:27:22.832Z,12.60
2023-05-11T05:30:26.994Z,12.60
2023-05-11T05:33:28.997Z,12.60
2023-05-11T05:36:31.791Z,12.60
2023-05-11T05:39:33.653Z,12.70
2023-05-11T05:42:35.508Z,12.70
2023-05-11T05:45:37.296Z,12.80
2023-05-11T05:48:41.442Z,12.80
2023-05-11T05:51:44.298Z,12.80
2023-05-11T05:54:46.273Z,12.90
2023-05-11T05:57:48.461Z,13.00
2023-05-11T06:00:50.478Z,13.10
2023-05-11T06:03:52.739Z,13.20
2023-05-11T06:06:56.056Z,13.20
2023-05-11T06:09:58.337Z,13.10
2023-05-11T06:13:03.410Z,13.20
2023-05-11T06:16:05.441Z,13.10
2023-05-11T06:19:09.396Z,13.10
2023-05-11T06:22:11.264Z,13.20
2023-05-11T06:25:33.565Z,13.20
2023-05-11T06:28:35.347Z,13.20
2023-05-11T06:31:38.854Z,13.20
2023-05-11T06:34:41.450Z,13.10
2023-05-11T06:37:43.199Z,13.20
2023-05-11T06:40:45.222Z,13.30
2023-05-11T06:43:47.186Z,13.20
2023-05-11T06:46:48.945Z,13.20
2023-05-11T06:49:50.731Z,13.20
2023-05-11T06:52:52.502Z,13.10
2023-05-11T06:56:00.864Z,13.20
2023-05-11T06:59:02.827Z,13.20
2023-05-11T07:02:05.403Z,13.10
2023-05-11T07:05:07.474Z,13.10
2023-05-11T07:08:10.129Z,13.10
2023-05-11T07:11:13.044Z,13.10
2023-05-11T07:14:15.515Z,13.10
2023-05-11T07:17:17.421Z,13.20
2023-05-11T07:20:20.352Z,13.10
2023-05-11T07:23:22.494Z,13.10
2023-05-11T07:26:24.422Z,13.20
2023-05-11T07:29:27.173Z,13.10
2023-05-11T07:32:30.874Z,13.10
2023-05-11T07:35:32.809Z,13.10
2023-05-11T07:38:35.127Z,13.20
2023-05-11T07:41:36.890Z,13.20
2023-05-11T07:44:38.640Z,13.20
2023-05-11T07:47:40.589Z,13.20
2023-05-11T07:50:43.099Z,13.20
2023-05-11T07:53:44.965Z,13.30
2023-05-11T07:56:46.931Z,13.30
2023-05-11T07:59:48.806Z,13.20
2023-05-11T08:02:50.959Z,13.20
2023-05-11T08:05:52.980Z,13.20
2023-05-11T08:08:59.634Z,13.20
2023-05-11T08:12:11.077Z,13.20
2023-05-11T08:15:13.835Z,13.20
2023-05-11T08:18:16.008Z,13.30
2023-05-11T08:21:18.756Z,13.40
2023-05-11T08:24:20.519Z,13.40
2023-05-11T08:27:22.320Z,13.50
2023-05-11T08:30:24.355Z,13.60
2023-05-11T08:36:33.821Z,13.60
2023-05-11T08:39:46.617Z,13.60
2023-05-11T08:42:54.131Z,13.70
2023-05-11T08:45:59.691Z,13.80
2023-05-11T08:49:02.049Z,13.80
2023-05-11T08:52:07.737Z,13.80
2023-05-11T08:55:10.110Z,13.90
2023-05-11T08:58:15.968Z,13.90
2023-05-11T09:01:19.260Z,13.90
2023-05-11T09:04:25.159Z,13.90
2023-05-11T09:07:28.429Z,13.90
2023-05-11T09:10:31.040Z,14.00
2023-05-11T09:13:35.598Z,14.10
2023-05-11T09:16:39.053Z,14.20
2023-05-11T09:20:07.758Z,14.30
2023-05-11T09:23:10.178Z,14.30
2023-05-11T09:26:17.017Z,14.30
2023-05-11T09:29:21.996Z,14.30
2023-05-11T09:32:24.583Z,14.10
2023-05-11T09:35:29.407Z,14.20
2023-05-11T09:38:34.170Z,14.30
2023-05-11T09:41:36.064Z,14.30
2023-05-11T09:44:38.932Z,14.20
2023-05-11T09:47:45.205Z,14.20
2023-05-11T09:50:49.324Z,14.30
2023-05-11T09:53:51.106Z,14.40
2023-05-11T09:56:59.577Z,14.40
2023-05-11T10:00:06.385Z,14.40
2023-05-11T10:03:11.924Z,14.40
2023-05-11T10:06:14.310Z,14.40
2023-05-11T10:09:18.630Z,14.50
2023-05-11T10:12:23.761Z,14.60
2023-05-11T10:15:30.477Z,14.60
2023-05-11T10:18:34.459Z,14.60
2023-05-11T10:21:37.710Z,14.60
2023-05-11T10:24:39.883Z,14.60
2023-05-11T10:27:42.706Z,14.60
2023-05-11T10:30:46.554Z,14.60
2023-05-11T10:33:51.190Z,14.60
2023-05-11T10:36:53.872Z,14.60
2023-05-11T10:39:57.462Z,14.70
2023-05-11T10:43:15.186Z,14.80
2023-05-11T10:49:55.415Z,14.70
2023-05-11T10:53:38.073Z,14.80
2023-05-11T10:57:04.746Z,14.80
2023-05-11T11:04:02.902Z,15.00
2023-05-11T11:07:18.205Z,15.10
2023-05-11T11:10:52.480Z,15.20
2023-05-11T11:14:19.193Z,15.10
2023-05-11T11:18:02.068Z,15.20
2023-05-11T11:21:04.734Z,15.20
2023-05-11T11:24:08.621Z,15.30
2023-05-11T11:27:14.577Z,15.30
2023-05-11T11:30:21.352Z,15.30
2023-05-11T11:33:23.447Z,15.40
2023-05-11T11:37:09.659Z,15.30
2023-05-11T11:40:15.429Z,15.40
2023-05-11T11:43:27.271Z,15.30
2023-05-11T11:46:30.468Z,15.30
2023-05-11T11:49:33.193Z,15.20
2023-05-11T11:52:35.033Z,15.30
2023-05-11T11:55:55.275Z,15.30
2023-05-11T11:58:59.408Z,15.30
2023-05-11T12:02:04.129Z,15.30
2023-05-11T12:05:22.328Z,15.30
2023-05-11T12:08:26.571Z,15.40
2023-05-11T12:11:29.926Z,15.40
2023-05-11T12:14:37.088Z,15.50
2023-05-11T12:17:39.239Z,15.60
2023-05-11T12:20:43.482Z,15.50
2023-05-11T12:23:59.263Z,15.40
2023-05-11T12:27:05.291Z,15.50
2023-05-11T12:30:08.138Z,15.50
2023-05-11T12:33:16.639Z,15.60
2023-05-11T12:36:19.171Z,15.60
2023-05-11T12:39:27.142Z,15.60
2023-05-11T12:42:29.781Z,15.60
2023-05-11T12:45:31.770Z,15.70
2023-05-11T12:48:34.782Z,15.80
2023-05-11T12:51:48.592Z,15.80
2023-05-11T12:55:00.324Z,15.90
2023-05-11T12:58:14.294Z,16.00
2023-05-11T13:01:16.910Z,16.00
2023-05-11T13:04:27.980Z,16.10
2023-05-11T13:07:29.919Z,16.20
2023-05-11T13:10:32.996Z,16.30
2023-05-11T13:13:35.621Z,16.30
2023-05-11T13:16:38.864Z,16.30
2023-05-11T13:19:40.971Z,16.40
2023-05-11T13:22:43.432Z,16.30
2023-05-11T13:25:49.532Z,16.30
2023-05-11T13:29:05.894Z,16.30
2023-05-11T13:32:12.666Z,16.10
2023-05-11T13:35:16.848Z,16.10
2023-05-11T13:38:18.949Z,16.30
2023-05-11T13:41:24.189Z,16.30
2023-05-11T13:44:26.891Z,16.30
2023-05-11T13:47:30.321Z,16.30
2023-05-11T13:50:32.110Z,16.40
2023-05-11T13:53:35.077Z,16.40
2023-05-11T13:56:36.908Z,16.40
2023-05-11T13:59:54.314Z,16.50
2023-05-11T14:02:58.330Z,16.40
2023-05-11T14:06:01.646Z,16.40
2023-05-11T14:09:03.901Z,16.50
2023-05-11T14:12:07.307Z,16.50
2023-05-11T14:15:09.491Z,16.50
2023-05-11T14:18:16.415Z,16.40
2023-05-11T14:21:18.361Z,16.60
2023-05-11T14:24:23.031Z,16.60
2023-05-11T14:27:33.527Z,16.60
2023-05-11T14:30:38.201Z,16.60
2023-05-11T14:33:40.139Z,16.70
2023-05-11T14:36:44.128Z,16.70
2023-05-11T14:39:45.929Z,16.70
2023-05-11T14:42:47.848Z,16.70
2023-05-11T14:45:49.892Z,16.70
2023-05-11T14:48:52.459Z,16.70
2023-05-11T14:51:54.513Z,16.70
2023-05-11T14:54:56.516Z,16.80
2023-05-11T14:57:58.511Z,16.80
2023-05-11T15:01:00.368Z,16.80
2023-05-11T15:04:02.201Z,16.60
2023-05-11T15:07:04.125Z,16.60
2023-05-11T15:10:11.452Z,16.70
2023-05-11T15:13:14.575Z,16.70
2023-05-11T15:16:16.741Z,16.70
2023-05-11T15:19:18.922Z,16.80
2023-05-11T15:22:22.521Z,16.80
2023-05-11T15:25:24.675Z,16.70
2023-05-11T15:28:33.154Z,16.70
2023-05-11T15:31:36.020Z,16.70
2023-05-11T15:34:50.806Z,16.80
2023-05-11T15:38:00.941Z,16.80
2023-05-11T15:44:46.443Z,16.90
2023-05-11T15:47:48.425Z,16.90
2023-05-11T15:50:50.480Z,16.90
2023-05-11T15:53:52.350Z,16.90
2023-05-11T15:56:57.208Z,16.90
2023-05-11T15:59:59.350Z,17.00
2023-05-11T16:03:01.587Z,16.90
2023-05-11T16:06:03.812Z,17.00
2023-05-11T16:09:06.507Z,17.00
2023-05-11T16:12:08.572Z,16.90
2023-05-11T16:15:10.633Z,16.80
2023-05-11T16:18:14.031Z,16.90
2023-05-11T16:21:29.791Z,16.90
2023-05-11T16:27:46.596Z,16.80
2023-05-11T16:30:48.586Z,16.80
2023-05-11T16:33:50.382Z,16.90
2023-05-11T16:36:52.803Z,16.90
2023-05-11T16:39:54.707Z,16.90
2023-05-11T16:42:58.063Z,16.80
2023-05-11T16:46:00.669Z,16.80
2023-05-11T16:49:02.483Z,16.70
2023-05-11T16:52:04.628Z,16.70
2023-05-11T16:55:07.085Z,16.70
2023-05-11T16:58:09.980Z,16.60
2023-05-11T17:01:12.385Z,16.60
2023-05-11T17:04:21.215Z,16.50
2023-05-11T17:07:23.261Z,16.50
2023-05-11T17:10:25.157Z,16.50
2023-05-11T17:13:30.041Z,16.50
2023-05-11T17:16:32.945Z,16.60
2023-05-11T17:19:34.980Z,16.60
2023-05-11T17:22:42.671Z,16.60
2023-05-11T17:25:44.927Z,16.60
2023-05-11T17:28:50.964Z,16.70
2023-05-11T17:31:52.914Z,16.70
2023-05-11T17:34:55.669Z,16.70
2023-05-11T17:37:57.442Z,16.60
2023-05-11T17:41:05.717Z,16.60
2023-05-11T17:44:08.271Z,16.60
2023-05-11T17:47:10.348Z,16.50
2023-05-11T17:50:12.087Z,16.50
2023-05-11T17:53:13.986Z,16.50
2023-05-11T17:56:16.559Z,16.50
2023-05-11T17:59:21.096Z,16.50
2023-05-11T18:02:23.101Z,16.40
2023-05-11T18:05:40.297Z,16.30
2023-05-11T18:08:49.454Z,16.30
2023-05-11T18:11:52.144Z,16.20
2023-05-11T18:14:53.973Z,16.30
2023-05-11T18:17:58.907Z,16.30
2023-05-11T18:21:07.389Z,16.30
2023-05-11T18:24:09.804Z,16.10
2023-05-11T18:27:12.622Z,16.10
2023-05-11T18:30:15.555Z,16.10
2023-05-11T18:33:17.434Z,16.10
2023-05-11T18:36:20.094Z,16.00
2023-05-11T18:39:21.993Z,16.00
2023-05-11T18:42:24.051Z,16.00
2023-05-11T18:48:53.630Z,16.00
2023-05-11T18:51:55.795Z,15.90
2023-05-11T18:55:00.072Z,15.90
2023-05-11T18:58:02.362Z,15.90
2023-05-11T19:01:06.755Z,15.80
2023-05-11T19:04:09.026Z,15.80
2023-05-11T19:07:11.244Z,15.70
2023-05-11T19:10:13.159Z,15.60
2023-05-11T19:13:15.226Z,15.40
2023-05-11T19:16:17.308Z,15.40
2023-05-11T19:19:19.375Z,15.50
2023-05-11T19:22:22.283Z,15.50
2023-05-11T19:25:24.988Z,15.40
2023-05-11T19:28:29.349Z,15.30
2023-05-11T19:31:33.200Z,15.40
2023-05-11T19:34:36.193Z,15.40
2023-05-11T19:37:38.067Z,15.40
2023-05-11T19:40:45.844Z,15.40
2023-05-11T19:43:48.357Z,15.40
2023-05-11T19:46:50.232Z,15.30
2023-05-11T19:49:57.027Z,15.30
2023-05-11T19:52:58.920Z,15.30
2023-05-11T19:56:07.114Z,15.30
2023-05-11T19:59:08.948Z,15.30
2023-05-11T20:02:10.748Z,15.20
2023-05-11T20:05:12.605Z,15.20
2023-05-11T20:08:14.524Z,15.20
2023-05-11T20:11:16.613Z,15.10
2023-05-11T20:14:18.529Z,15.20
2023-05-11T20:17:21.465Z,15.10
2023-05-11T20:20:23.631Z,15.10
2023-05-11T20:23:25.539Z,15.10
2023-05-11T20:26:27.427Z,15.00
2023-05-11T20:29:30.473Z,15.00
2023-05-11T20:32:33.261Z,15.00
2023-05-11T20:35:35.158Z,15.00
2023-05-11T20:38:37.900Z,15.00
2023-05-11T20:41:39.760Z,14.90
2023-05-11T20:44:41.661Z,14.90
2023-05-11T20:47:43.491Z,14.80
2023-05-11T20:50:54.732Z,14.80
2023-05-11T20:53:56.750Z,14.70
2023-05-11T20:57:00.197Z,14.70
2023-05-11T21:00:05.174Z,14.70
2023-05-11T21:03:07.208Z,14.70
2023-05-11T21:06:09.152Z,14.80
2023-05-11T21:09:14.585Z,14.80
2023-05-11T21:12:16.536Z,14.90
2023-05-11T21:15:18.766Z,14.90
2023-05-11T21:18:20.646Z,14.80
2023-05-11T21:21:22.663Z,14.80
2023-05-11T21:24:24.456Z,14.90
2023-05-11T21:27:27.082Z,14.80
2023-05-11T21:30:29.923Z,14.70
2023-05-11T21:33:31.777Z,14.60
2023-05-11T21:36:33.706Z,14.60
2023-05-11T21:39:41.710Z,14.60
2023-05-11T21:42:43.632Z,14.60
2023-05-11T21:45:48.591Z,14.60
2023-05-11T21:48:50.608Z,14.50
2023-05-11T21:51:52.917Z,14.50
2023-05-11T21:54:54.687Z,14.60
2023-05-11T21:57:56.617Z,14.40
2023-05-11T22:00:58.330Z,14.40
2023-05-11T22:04:09.005Z,14.50
2023-05-11T22:07:11.129Z,14.50
2023-05-11T22:10:13.213Z,14.60
2023-05-11T22:13:15.118Z,14.50
2023-05-11T22:16:17.202Z,14.50
2023-05-11T22:19:19.198Z,14.50
2023-05-11T22:22:21.069Z,14.50
2023-05-11T22:25:22.994Z,14.50
2023-05-11T22:28:25.647Z,14.50
2023-05-11T22:31:31.749Z,14.50
2023-05-11T22:34:34.354Z,14.60
2023-05-11T22:37:36.210Z,14.60
2023-05-11T22:40:38.200Z,14.60
2023-05-11T22:43:39.962Z,14.60
2023-05-11T22:46:41.925Z,14.60
2023-05-11T22:49:43.790Z,14.50
2023-05-11T22:52:47.951Z,14.50
2023-05-11T22:55:49.789Z,14.50
2023-05-11T22:58:57.345Z,14.60
2023-05-11T23:02:01.719Z,14.60
2023-05-11T23:05:20.883Z,14.50
2023-05-11T23:08:23.022Z,14.40
2023-05-11T23:11:25.039Z,14.30
2023-05-11T23:14:26.899Z,14.20
2023-05-11T23:17:28.952Z,14.10
2023-05-11T23:20:30.865Z,14.10
2023-05-11T23:23:33.375Z,14.10
2023-05-11T23:26:36.449Z,14.10
2023-05-11T23:29:39.747Z,14.00
2023-05-11T23:32:41.649Z,14.10
2023-05-11T23:35:43.599Z,14.00
2023-05-11T23:38:45.517Z,14.00
2023-05-11T23:41:47.541Z,14.00
2023-05-11T23:44:49.399Z,14.00
2023-05-11T23:47:51.739Z,14.00
2023-05-11T23:50:53.616Z,13.90
2023-05-11T23:53:57.053Z,13.90
2023-05-11T23:56:59.816Z,13.90
